.
WxDataArchive / Data Records for 2010-08-04
2010-08-03 August 2010 2010-08-05

Data Records for Wednesday, 04 August 2010

Time	Temp	Chill	HIndex	Humid	Dewpt	 Wind 	HiWind	WindDir	Rain 	Barom 
-----	----	-----	------	-----	-----	------	------	-------	-----	----- 
00:00	76.0	76.0	75.7	93	73.8	0	0	---	0.00	29.883 
00:05	76.0	76.0	75.7	93	73.8	0	0	---	0.00	29.883 
00:10	75.8	75.8	75.3	93	73.6	0	0	---	0.00	29.883 
00:15	76.0	76.0	75.6	94	74.1	0	0	---	0.00	29.873 
00:20	76.0	76.0	75.6	94	74.1	0	0	---	0.00	29.873 
00:25	76.0	76.0	75.6	94	74.1	0	0	---	0.00	29.873 
00:30	76.0	76.0	75.6	94	74.1	0	0	---	0.00	29.882 
00:35	76.0	76.0	75.6	94	74.1	0	0	---	0.00	29.882 
00:40	76.0	76.0	75.6	94	74.1	0	0	---	0.00	29.882 
00:45	76.0	76.0	75.6	94	74.1	0	0	---	0.00	29.873 
00:50	76.0	76.0	75.6	94	74.1	0	0	---	0.00	29.873 
00:55	76.0	76.0	75.6	94	74.1	0	0	---	0.00	29.873 
01:00	76.0	76.0	75.6	94	74.1	0	0	---	0.00	29.882 
01:05	76.3	76.3	76.2	95	74.8	0	1	338	0.00	29.882 
01:10	76.3	76.3	76.3	94	74.4	0	0	---	0.00	29.882 
01:15	76.3	76.3	76.3	94	74.4	0	0	---	0.00	29.856 
01:20	76.5	76.5	76.7	95	75.0	0	0	---	0.00	29.856 
01:25	76.5	76.5	76.7	95	75.0	0	1	338	0.00	29.856 
01:30	76.5	76.5	76.7	95	75.0	0	0	---	0.00	29.865 
01:35	76.5	76.5	76.8	94	74.6	0	0	---	0.00	29.865 
01:40	76.5	76.5	76.8	94	74.6	0	0	---	0.00	29.865 
01:45	76.5	76.5	76.7	95	75.0	0	0	---	0.00	29.876 
01:50	76.5	76.5	76.7	95	75.0	0	1	338	0.00	29.876 
01:55	76.5	76.5	76.7	95	75.0	0	1	338	0.00	29.876 
02:00	76.7	76.7	77.2	95	75.2	0	1	338	0.00	29.894 
02:05	76.7	76.7	77.2	95	75.2	0	3	0	0.00	29.894 
02:10	76.7	76.7	77.2	94	74.8	0	1	0	0.00	29.894 
02:15	76.7	76.7	77.2	94	74.8	0	1	0	0.00	29.886 
02:20	76.7	76.7	77.2	94	74.8	0	1	0	0.00	29.886 
02:25	76.5	76.5	76.8	93	74.3	0	1	0	0.00	29.886 
02:30	76.7	76.7	77.3	93	74.5	0	2	0	0.00	29.876 
02:35	76.7	76.7	77.3	93	74.5	0	1	22	0.00	29.876 
02:40	76.7	76.7	77.3	93	74.5	0	2	0	0.00	29.876 
02:45	76.7	76.7	77.3	93	74.5	0	1	0	0.00	29.858 
02:50	76.5	76.5	76.8	93	74.3	0	1	0	0.00	29.858 
02:55	76.5	76.5	76.8	93	74.3	0	0	---	0.00	29.858 
03:00	76.5	76.5	76.8	93	74.3	0	1	0	0.00	29.857 
03:05	76.5	76.5	76.8	93	74.3	0	0	---	0.00	29.857 
03:10	76.3	76.3	76.4	93	74.1	0	0	---	0.00	29.857 
03:15	76.3	76.3	76.4	93	74.1	0	1	0	0.00	29.847 
03:20	76.1	76.1	75.9	93	73.9	0	0	---	0.00	29.847 
03:25	76.1	76.1	75.9	93	73.9	0	0	---	0.00	29.847 
03:30	76.0	76.0	75.7	93	73.8	0	1	0	0.00	29.847 
03:35	76.0	76.0	75.7	93	73.8	0	1	0	0.00	29.847 
03:40	76.0	76.0	75.7	93	73.8	0	0	---	0.00	29.847 
03:45	75.8	75.8	75.3	93	73.6	0	0	---	0.00	29.838 
03:50	75.8	75.8	75.3	93	73.6	0	1	0	0.00	29.838 
03:55	75.8	75.8	75.3	93	73.6	0	1	0	0.00	29.838 
04:00	75.6	75.6	74.8	93	73.4	0	1	0	0.00	29.829 
04:05	75.4	75.4	74.4	93	73.2	0	0	---	0.00	29.829 
04:10	75.4	75.4	74.5	92	72.9	0	0	---	0.00	29.829 
04:15	75.3	75.3	74.3	92	72.8	0	0	---	0.00	29.831 
04:20	75.3	75.3	74.3	92	72.8	0	0	---	0.00	29.831 
04:25	75.1	75.1	73.9	92	72.6	0	0	---	0.00	29.831 
04:30	74.9	74.9	74.9	92	72.4	0	0	---	0.00	29.831 
04:35	74.9	74.9	74.9	92	72.4	0	0	---	0.00	29.831 
04:40	74.7	74.7	74.7	92	72.2	0	0	---	0.00	29.831 
04:45	74.6	74.6	74.6	92	72.1	0	0	---	0.00	29.829 
04:50	74.6	74.6	74.6	92	72.1	0	0	---	0.00	29.829 
04:55	74.4	74.4	74.4	93	72.2	0	0	---	0.00	29.829 
05:00	74.2	74.2	74.2	93	72.0	0	0	---	0.00	29.829 
05:05	74.2	74.2	74.2	93	72.0	0	0	---	0.00	29.829 
05:10	74.0	74.0	74.0	93	71.8	0	0	---	0.00	29.829 
05:15	74.0	74.0	74.0	93	71.8	0	0	---	0.00	29.832 
05:20	73.9	73.9	73.9	93	71.7	0	0	---	0.00	29.832 
05:25	73.9	73.9	73.9	93	71.7	0	0	---	0.00	29.832 
05:30	73.7	73.7	73.7	93	71.5	0	0	---	0.00	29.834 
05:35	73.7	73.7	73.7	93	71.5	0	0	---	0.00	29.834 
05:40	73.7	73.7	73.7	94	71.9	0	0	---	0.00	29.834 
05:45	73.5	73.5	73.5	94	71.7	0	0	---	0.00	29.839 
05:50	73.5	73.5	73.5	94	71.7	0	0	---	0.00	29.839 
05:55	73.5	73.5	73.5	94	71.7	0	0	---	0.00	29.839 
06:00	73.7	73.7	73.7	94	71.9	0	0	---	0.00	29.842 
06:05	73.7	73.7	73.7	94	71.9	0	0	---	0.00	29.842 
06:10	73.7	73.7	73.7	94	71.9	0	0	---	0.00	29.842 
06:15	73.9	73.9	73.9	94	72.1	0	0	---	0.00	29.845 
06:20	73.9	73.9	73.9	94	72.1	0	0	---	0.00	29.845 
06:25	73.9	73.9	73.9	94	72.1	0	0	---	0.00	29.845 
06:30	73.7	73.7	73.7	94	71.9	0	0	---	0.00	29.853 
06:35	73.9	73.9	73.9	95	72.4	0	0	---	0.00	29.853 
06:40	73.9	73.9	73.9	95	72.4	0	0	---	0.00	29.853 
06:45	73.9	73.9	73.9	95	72.4	0	0	---	0.00	29.849 
06:50	73.9	73.9	73.9	95	72.4	0	0	---	0.00	29.849 
06:55	73.9	73.9	73.9	95	72.4	0	0	---	0.00	29.849 
07:00	74.0	74.0	74.0	95	72.5	0	0	---	0.00	29.849 
07:05	74.0	74.0	74.0	95	72.5	0	0	---	0.00	29.849 
07:10	74.0	74.0	74.0	95	72.5	0	0	---	0.00	29.849 
07:15	74.2	74.2	74.2	95	72.7	0	0	---	0.00	29.850 
07:20	74.2	74.2	74.2	95	72.7	0	0	---	0.00	29.850 
07:25	74.4	74.4	74.4	95	72.9	0	0	---	0.00	29.850 
07:30	74.4	74.4	74.4	95	72.9	0	0	---	0.00	29.849 
07:35	74.6	74.6	74.6	95	73.1	0	0	---	0.00	29.849 
07:40	74.7	74.7	74.7	95	73.2	0	0	---	0.00	29.849 
07:45	74.9	74.9	74.9	95	73.4	0	0	---	0.00	29.851 
07:50	75.1	75.1	73.4	95	73.6	0	0	---	0.00	29.851 
07:55	75.4	75.4	74.1	95	73.9	0	0	---	0.00	29.851 
08:00	75.8	75.8	75.1	94	73.9	0	1	0	0.00	29.856 
08:05	76.3	76.3	76.4	93	74.1	0	0	---	0.00	29.856 
08:10	76.5	76.5	76.9	92	74.0	0	0	---	0.00	29.856 
08:15	77.0	77.0	78.1	92	74.5	0	0	---	0.00	29.857 
08:20	77.0	77.0	78.2	90	73.8	0	0	---	0.00	29.857 
08:25	77.4	77.4	79.1	89	73.9	0	1	0	0.00	29.857 
08:30	77.7	77.7	79.8	88	73.8	0	0	---	0.00	29.860 
08:35	78.1	78.1	80.6	86	73.6	0	1	0	0.00	29.860 
08:40	78.1	78.1	80.6	84	72.9	0	1	0	0.00	29.860 
08:45	78.5	78.5	81.4	83	72.9	0	1	0	0.00	29.861 
08:50	78.6	78.6	81.6	83	73.0	0	1	0	0.00	29.861 
08:55	79.0	79.0	82.3	82	73.0	0	1	0	0.00	29.861 
09:00	79.4	79.4	83.1	81	73.0	0	1	0	0.00	29.859 
09:05	79.6	79.6	83.5	81	73.2	0	1	0	0.00	29.859 
09:10	79.9	79.9	84.0	80	73.2	0	2	0	0.00	29.859 
09:15	80.1	80.1	84.3	79	73.0	0	1	0	0.00	29.861 
09:20	80.5	80.5	85.0	78	73.0	0	1	0	0.00	29.861 
09:25	80.7	80.7	85.4	78	73.2	0	2	0	0.00	29.861 
09:30	81.1	81.1	86.1	77	73.2	0	1	0	0.00	29.857 
09:35	81.2	81.2	86.3	77	73.3	0	1	0	0.00	29.857 
09:40	81.4	81.4	86.7	77	73.5	0	1	0	0.00	29.857 
09:45	81.6	81.6	87.2	77	73.7	0	2	0	0.00	29.864 
09:50	81.8	81.8	87.6	77	73.9	0	1	0	0.00	29.864 
09:55	82.0	82.0	88.0	77	74.1	1	2	0	0.00	29.864 
10:00	82.2	82.2	88.5	77	74.2	1	4	270	0.00	29.874 
10:05	82.2	82.2	88.3	76	73.9	1	3	270	0.00	29.874 
10:10	82.2	82.2	88.5	77	74.2	0	3	270	0.00	29.874 
10:15	82.2	82.2	88.5	77	74.2	1	3	315	0.00	29.879 
10:20	82.2	82.2	88.5	77	74.2	0	2	315	0.00	29.879 
10:25	82.2	82.2	88.8	78	74.6	0	1	315	0.00	29.879 
10:30	82.0	82.0	88.3	78	74.4	0	2	315	0.00	29.890 
10:35	82.2	82.2	89.0	79	75.0	0	1	315	0.00	29.890 
10:40	82.8	82.8	90.2	78	75.2	1	3	315	0.00	29.890 
10:45	83.4	83.4	91.7	78	75.8	1	3	315	0.00	29.898 
10:50	83.0	83.0	90.4	77	75.0	1	3	292	0.00	29.898 
10:55	82.4	82.4	89.2	78	74.8	1	3	292	0.00	29.898 
11:00	82.2	82.2	89.0	79	75.0	1	3	292	0.00	29.921 
11:05	81.8	81.8	88.3	80	75.0	1	4	292	0.00	29.921 
11:10	81.6	81.6	88.1	81	75.2	1	2	292	0.00	29.921 
11:15	79.4	79.4	82.4	74	70.4	4	13	292	0.00	29.938 
11:20	76.5	76.5	77.9	78	69.1	4	11	292	0.00	29.938 
11:25	74.6	74.6	74.6	82	68.7	3	6	292	0.01	29.938 
11:30	73.3	73.3	73.3	85	68.5	0	3	315	0.00	29.918 
11:35	72.7	72.7	72.7	87	68.6	0	2	315	0.00	29.918 
11:40	72.5	72.5	72.5	88	68.7	1	5	292	0.00	29.918 
11:45	72.3	72.3	72.3	89	68.9	0	3	292	0.00	29.930 
11:50	72.1	72.1	72.1	89	68.7	0	1	292	0.00	29.930 
11:55	72.1	72.1	72.1	90	69.0	1	4	90	0.00	29.930 
12:00	72.1	72.1	72.1	90	69.0	1	3	90	0.00	29.906 
12:05	72.3	72.3	72.3	90	69.2	0	1	90	0.00	29.906 
12:10	72.3	72.3	72.3	90	69.2	0	2	90	0.00	29.906 
12:15	72.3	72.3	72.3	90	69.2	0	0	---	0.00	29.903 
12:20	72.5	72.5	72.5	90	69.4	0	0	---	0.00	29.903 
12:25	72.7	72.7	72.7	90	69.6	0	1	90	0.00	29.903 
12:30	72.8	72.8	72.8	90	69.7	0	1	90	0.00	29.906 
12:35	73.2	73.2	73.2	90	70.1	0	2	90	0.00	29.906 
12:40	73.3	73.3	73.3	89	69.9	1	3	90	0.00	29.906 
12:45	73.5	73.5	73.5	89	70.0	2	4	90	0.00	29.883 
12:50	73.5	73.5	73.5	88	69.7	2	4	90	0.00	29.883 
12:55	73.9	73.9	73.9	88	70.1	1	4	90	0.00	29.883 
13:00	73.9	73.9	73.9	88	70.1	1	2	90	0.00	29.870 
13:05	73.9	73.9	73.9	88	70.1	0	2	135	0.00	29.870 
13:10	74.0	74.0	74.0	88	70.2	0	2	135	0.00	29.870 
13:15	74.2	74.2	74.2	87	70.1	1	4	135	0.00	29.869 
13:20	74.4	74.4	74.4	88	70.6	1	3	158	0.00	29.869 
13:25	74.4	74.4	74.4	87	70.3	1	4	90	0.00	29.869 
13:30	74.4	74.4	74.4	87	70.3	1	2	90	0.00	29.865 
13:35	74.6	74.6	74.6	86	70.1	0	3	90	0.00	29.865 
13:40	74.7	74.7	74.7	86	70.2	1	4	112	0.00	29.865 
13:45	74.9	74.9	74.9	85	70.1	1	3	112	0.00	29.859 
13:50	75.1	75.1	75.0	85	70.3	0	2	135	0.00	29.859 
13:55	75.3	75.3	75.2	86	70.8	1	4	112	0.00	29.859 
14:00	75.3	75.3	75.2	86	70.8	0	2	112	0.00	29.847 
14:05	75.4	75.4	75.4	86	70.9	0	2	112	0.00	29.847 
14:10	75.8	75.8	76.2	85	71.0	0	4	90	0.00	29.847 
14:15	76.1	76.1	76.7	85	71.2	0	2	90	0.00	29.840 
14:20	76.8	76.8	78.1	84	71.6	0	2	90	0.00	29.840 
14:25	77.6	77.6	79.6	83	72.0	1	4	90	0.00	29.840 
14:30	77.9	77.9	80.1	80	71.2	0	1	248	0.00	29.837 
14:35	78.1	78.1	80.4	78	70.7	1	4	270	0.00	29.837 
14:40	78.5	78.5	81.1	77	70.7	0	2	90	0.00	29.837 
14:45	78.6	78.6	81.3	78	71.1	0	2	90	0.00	29.833 
14:50	78.8	78.8	81.7	78	71.3	1	2	292	0.00	29.833 
14:55	79.4	79.4	82.7	77	71.5	1	3	292	0.00	29.833 
15:00	79.9	79.9	83.6	77	72.0	0	3	68	0.00	29.830 
15:05	80.3	80.3	84.0	74	71.2	1	3	68	0.00	29.830 
15:10	80.7	80.7	84.7	74	71.6	0	2	0	0.00	29.830 
15:15	81.1	81.1	85.3	73	71.6	0	2	0	0.00	29.834 
15:20	81.4	81.4	85.9	73	71.9	0	1	0	0.00	29.834 
15:25	81.6	81.6	86.1	72	71.7	0	2	0	0.00	29.834 
15:30	82.2	82.2	86.8	70	71.4	0	2	0	0.00	29.830 
15:35	82.4	82.4	86.5	67	70.3	1	4	270	0.00	29.830 
15:40	82.6	82.6	86.9	67	70.5	0	1	270	0.00	29.830 
15:45	82.6	82.6	86.4	65	69.6	1	3	270	0.00	29.820 
15:50	82.8	82.8	87.2	67	70.7	1	5	270	0.00	29.820 
15:55	82.8	82.8	87.2	67	70.7	1	2	270	0.00	29.820 
16:00	83.0	83.0	87.6	67	70.9	0	1	270	0.00	29.814 
16:05	83.0	83.0	87.1	65	70.0	0	2	270	0.00	29.814 
16:10	83.2	83.2	87.5	65	70.2	0	2	270	0.00	29.814 
16:15	83.0	83.0	86.9	64	69.5	1	2	270	0.00	29.816 
16:20	83.4	83.4	88.1	66	70.8	0	2	270	0.00	29.816 
16:25	84.0	84.0	88.4	63	70.0	1	3	270	0.00	29.816 
16:30	84.5	84.5	89.0	62	70.0	0	2	270	0.00	29.814 
16:35	84.5	84.5	89.0	62	70.0	1	3	270	0.00	29.814 
16:40	84.5	84.5	89.0	62	70.0	0	2	270	0.00	29.814 
16:45	84.9	84.9	89.7	62	70.4	0	2	270	0.00	29.813 
16:50	85.3	85.3	90.8	63	71.2	0	1	270	0.00	29.813 
16:55	85.3	85.3	90.5	62	70.8	0	1	270	0.00	29.813 
17:00	85.1	85.1	90.1	62	70.6	0	1	270	0.00	29.810 
17:05	85.1	85.1	90.1	62	70.6	0	2	270	0.00	29.810 
17:10	84.9	84.9	89.1	60	69.4	1	3	270	0.00	29.810 
17:15	84.7	84.7	89.0	61	69.7	0	2	292	0.00	29.807 
17:20	84.5	84.5	89.0	62	70.0	1	2	292	0.00	29.807 
17:25	84.5	84.5	89.0	62	70.0	1	3	292	0.00	29.807 
17:30	84.5	84.5	89.3	63	70.5	0	2	292	0.00	29.800 
17:35	84.7	84.7	89.6	63	70.7	0	2	292	0.00	29.800 
17:40	84.9	84.9	90.0	63	70.9	0	1	292	0.00	29.800 
17:45	84.9	84.9	89.7	62	70.4	0	1	292	0.00	29.797 
17:50	84.9	84.9	89.4	61	69.9	1	2	292	0.00	29.797 
17:55	85.5	85.5	90.2	60	70.0	1	3	292	0.00	29.797 
18:00	85.5	85.5	90.2	60	70.0	1	4	270	0.00	29.796 
18:05	85.3	85.3	90.1	61	70.3	1	3	315	0.00	29.796 
18:10	85.1	85.1	89.1	59	69.1	1	3	270	0.00	29.796 
18:15	84.9	84.9	89.4	61	69.9	1	3	270	0.00	29.792 
18:20	84.9	84.9	89.1	60	69.4	0	3	270	0.00	29.792 
18:25	84.7	84.7	89.3	62	70.2	1	3	270	0.00	29.792 
18:30	84.7	84.7	88.7	60	69.2	1	2	270	0.00	29.785 
18:35	84.7	84.7	89.0	61	69.7	1	3	315	0.00	29.785 
18:40	84.7	84.7	87.9	57	67.7	1	3	315	0.00	29.785 
18:45	84.9	84.9	87.3	54	66.4	1	3	315	0.00	29.779 
18:50	85.1	85.1	87.9	55	67.1	0	3	315	0.00	29.779 
18:55	85.1	85.1	87.9	55	67.1	1	3	315	0.00	29.779 
19:00	85.1	85.1	88.2	56	67.6	1	2	338	0.00	29.775 
19:05	85.1	85.1	88.2	56	67.6	0	1	338	0.00	29.775 
19:10	84.7	84.7	87.9	57	67.7	0	1	338	0.00	29.775 
19:15	84.5	84.5	87.8	58	68.1	0	1	338	0.00	29.775 
19:20	84.1	84.1	87.4	59	68.2	0	1	338	0.00	29.775 
19:25	84.0	84.0	87.3	59	68.1	0	1	338	0.00	29.775 
19:30	83.8	83.8	87.2	60	68.4	0	0	---	0.00	29.773 
19:35	83.4	83.4	86.5	60	68.0	0	1	338	0.00	29.773 
19:40	83.2	83.2	86.2	60	67.8	0	1	338	0.00	29.773 
19:45	83.0	83.0	86.1	61	68.1	0	0	---	0.00	29.779 
19:50	82.8	82.8	85.8	61	67.9	0	0	---	0.00	29.779 
19:55	82.6	82.6	85.5	61	67.8	0	0	---	0.00	29.779 
20:00	82.4	82.4	85.4	62	68.0	0	0	---	0.00	29.773 
20:05	82.2	82.2	85.3	63	68.3	0	0	---	0.00	29.773 
20:10	82.0	82.0	85.2	64	68.6	0	0	---	0.00	29.773 
20:15	81.8	81.8	85.1	65	68.9	0	0	---	0.00	29.783 
20:20	81.6	81.6	84.7	65	68.7	0	0	---	0.00	29.783 
20:25	81.4	81.4	84.6	66	68.9	0	0	---	0.00	29.783 
20:30	81.2	81.2	84.5	67	69.2	0	1	338	0.00	29.783 
20:35	81.2	81.2	84.6	68	69.6	0	0	---	0.00	29.783 
20:40	81.1	81.1	84.5	68	69.5	0	2	338	0.00	29.783 
20:45	80.9	80.9	84.6	71	70.6	1	2	338	0.00	29.810 
20:50	80.1	80.1	83.5	73	70.6	0	3	338	0.02	29.810 
20:55	78.1	78.1	80.3	75	69.5	1	4	270	0.00	29.810 
21:00	76.1	76.1	77.2	79	69.1	2	5	270	0.01	29.815 
21:05	74.9	74.9	74.9	83	69.4	1	2	270	0.00	29.815 
21:10	74.2	74.2	74.2	85	69.4	0	1	270	0.00	29.815 
21:15	73.9	73.9	73.9	87	69.8	0	2	270	0.00	29.823 
21:20	73.7	73.7	73.7	88	69.9	1	4	270	0.00	29.823 
21:25	73.5	73.5	73.5	89	70.0	1	4	270	0.00	29.823 
21:30	73.3	73.3	73.3	90	70.2	1	3	270	0.00	29.823 
21:35	73.2	73.2	73.2	91	70.4	0	2	270	0.00	29.823 
21:40	73.2	73.2	73.2	91	70.4	0	2	270	0.00	29.823 
21:45	73.2	73.2	73.2	92	70.7	0	1	270	0.00	29.829 
21:50	73.3	73.3	73.3	92	70.8	0	1	270	0.00	29.829 
21:55	73.3	73.3	73.3	92	70.8	0	1	270	0.00	29.829 
22:00	73.3	73.3	73.3	92	70.8	0	1	270	0.00	29.816 
22:05	73.3	73.3	73.3	92	70.8	0	0	---	0.00	29.816 
22:10	73.2	73.2	73.2	92	70.7	0	0	---	0.00	29.816 
22:15	73.2	73.2	73.2	93	71.0	0	0	---	0.00	29.804 
22:20	73.2	73.2	73.2	93	71.0	0	0	---	0.00	29.804 
22:25	73.2	73.2	73.2	93	71.0	0	0	---	0.00	29.804 
22:30	73.2	73.2	73.2	93	71.0	0	0	---	0.00	29.810 
22:35	73.2	73.2	73.2	93	71.0	0	0	---	0.00	29.810 
22:40	73.3	73.3	73.3	93	71.1	0	0	---	0.00	29.810 
22:45	73.3	73.3	73.3	93	71.1	0	0	---	0.00	29.813 
22:50	73.3	73.3	73.3	94	71.5	0	1	270	0.00	29.813 
22:55	73.3	73.3	73.3	94	71.5	0	0	---	0.00	29.813 
23:00	73.3	73.3	73.3	94	71.5	0	1	270	0.00	29.818 
23:05	73.3	73.3	73.3	94	71.5	0	0	---	0.00	29.818 
23:10	73.3	73.3	73.3	94	71.5	0	0	---	0.00	29.818 
23:15	73.3	73.3	73.3	94	71.5	0	0	---	0.00	29.820 
23:20	73.3	73.3	73.3	94	71.5	0	0	---	0.00	29.820 
23:25	73.3	73.3	73.3	94	71.5	0	0	---	0.00	29.820 
23:30	73.3	73.3	73.3	94	71.5	0	0	---	0.00	29.818 
23:35	73.3	73.3	73.3	94	71.5	0	0	---	0.00	29.818 
23:40	73.3	73.3	73.3	94	71.5	0	0	---	0.00	29.818 
23:45	73.3	73.3	73.3	94	71.5	0	0	---	0.00	29.815 
23:50	73.3	73.3	73.3	94	71.5	0	0	---	0.00	29.815 
23:55	73.3	73.3	73.3	94	71.5	0	0	---	0.00	29.815 

CoCoRaHS
IN-AL-39
A2 Web Hosting
Creative Commons License
GoDaddy
search engine by freefind advanced

loaded 2018-11-15 16:54:14 • last modified 2010-11-18 10:43:29
Privacy PolicyDisclaimer
• wx.awcolley.com is powered by PmWiki v.2002016 •
• all content (unless otherwise noted) © 2018 A W Colley